This is the latest recevied weather packets stored in our database for station/object WA6ODQ-13. If no packets are shown the sender has not sent any weather packets the latest 1 day(s).
| Time | Temp. | Humidity | Pressure | Rain* | Wind** | Luminosity | Snow |
|---|---|---|---|---|---|---|---|
| 1836274702 | 23.89° C | 72% | 1012.1 hPa | 0 mm | 0 m/s | 0 W/m² | - |
| 1836274555 | 23.33° C | 72% | 1012.3 hPa | 0 mm | 0.45 m/s, 359° | 0 W/m² | - |
| 1836274400 | 23.89° C | 72% | 1012.2 hPa | 0 mm | 0 m/s | 0 W/m² | - |
| 1836274253 | 23.89° C | 72% | 1012.3 hPa | 0 mm | 0.89 m/s, 347° | 0 W/m² | - |
| 1836274098 | 23.89° C | 71% | 1012 hPa | 0 mm | 0.45 m/s, 348° | 0 W/m² | - |
| 1778036916 | 16.11° C | 78% | 1014 hPa | 0 mm | 1.79 m/s, 204° | 1 W/m² | - |
| 1778036614 | 16.11° C | 78% | 1014.2 hPa | 0 mm | 1.34 m/s, 209° | 2 W/m² | - |
| 1778036311 | 16.11° C | 78% | 1013.9 hPa | 0 mm | 1.34 m/s, 243° | 3 W/m² | - |
| 1778036007 | 16.11° C | 78% | 1013.8 hPa | 0 mm | 2.68 m/s, 233° | 4 W/m² | - |
| 1778035704 | 16.11° C | 78% | 1014 hPa | 0 mm | 1.34 m/s, 217° | 6 W/m² | - |
| 1778035401 | 16.67° C | 79% | 1013.6 hPa | 0 mm | 1.34 m/s, 166° | 9 W/m² | - |
| 1778035097 | 16.67° C | 78% | 1013.8 hPa | 0 mm | 0.89 m/s, 189° | 11 W/m² | - |
| 1778034794 | 16.67° C | 78% | 1013.9 hPa | 0 mm | 1.79 m/s, 187° | 14 W/m² | - |
| 1778034491 | 16.67° C | 78% | 1013.7 hPa | 0 mm | 0.45 m/s, 158° | 18 W/m² | - |
| 1778034189 | 16.67° C | 78% | 1013.7 hPa | 0 mm | 1.34 m/s, 184° | 26 W/m² | - |
| 1778033887 | 16.67° C | 78% | 1013.4 hPa | 0 mm | 1.79 m/s, 204° | 30 W/m² | - |
| 1778033583 | 16.67° C | 78% | 1013.3 hPa | 0 mm | 1.34 m/s, 231° | 37 W/m² | - |
| 1778033280 | 16.67° C | 77% | 1013.3 hPa | 0 mm | 1.34 m/s, 218° | 45 W/m² | - |
| 1778032978 | 17.22° C | 77% | 1013.4 hPa | 0 mm | 1.34 m/s, 212° | 46 W/m² | - |
| 1778032675 | 17.22° C | 76% | 1013.6 hPa | 0 mm | 1.34 m/s, 178° | 53 W/m² | - |
| 1778032374 | 17.22° C | 76% | 1013.7 hPa | 0 mm | 2.24 m/s, 172° | 52 W/m² | - |
| 1778032069 | 17.22° C | 76% | 1013.4 hPa | 0 mm | 1.34 m/s, 181° | 57 W/m² | - |
| 1778031766 | 17.22° C | 76% | 1013.5 hPa | 0 mm | 1.79 m/s, 190° | 63 W/m² | - |
| 1778031463 | 17.78° C | 76% | 1013.4 hPa | 0 mm | 1.34 m/s, 204° | 63 W/m² | - |
| 1778031160 | 17.78° C | 76% | 1013.4 hPa | 0 mm | 1.34 m/s, 307° | 66 W/m² | - |
* Rain latest hour (hover to see other rain measurements)
** Current wind speed in m/s (hover to see current wind gust speed)